Share

Albia, IA

Ottumwa Industrial (KOTM) Elev 843 ft | 41.11 °N, 92.45 °W | Change Station

Current weather conditions updated 34 minutes ago

Overcast
Overcast
41 °F
Feels Like 33 °F
N
15
Wind Variable Wind from NW
Sunrise 6:28 AM
Sunset 7:53 PM
Moon Waning Gibbous

Today is forecast to be Cooler than yesterday.

Pressure 30.28 in
Visibility 10.0 miles
Clouds Overcast 1800 ft
Windchill 33 °F
Dew Point 30 °F
Humidity 65%
Rainfall 0.00 in
Snow Depth Not available.
UV 3 out of 16
Pollen 9.60 out of 12
Air Quality Not available.
Flu Activity Sporadic
METAR KOTM 171653Z AUTO 32013KT 10SM OVC018 05/M01 A3028

More Conditions Fewer Conditions

Pressure 30.28 in
Visibility 10.0 miles
Clouds Overcast 1800 ft
Windchill 33 °F
Dew Point 30 °F
Humidity 65%
Rainfall 0.00 in
Snow Depth Not available.
UV 3 out of 16
Pollen 9.60 out of 12
Air Quality Not available.
Flu Activity Sporadic
METAR KOTM 171653Z AUTO 32013KT 10SM OVC018 05/M01 A3028

More Conditions Fewer Conditions

10-Day Forecast

Almanac

Astronomy

Apr. 17, 2014 Rise Set
Actual Time 6:28 AM CDT 7:53 PM CDT
Civil Twilight 5:59 AM CDT 8:21 PM CDT
Nautical Twilight 5:25 AM CDT 8:56 PM CDT
Astronomical Twilight 4:49 AM CDT 9:33 PM CDT
Moon 10:40 PM CDT 7:59 AM CDT
Length of Visible Light 14h 21m
Length of Day
13h 24m
Tomorrow will be 2m 35s longer.
Waning Gibbous, 93% of the Moon is Illuminated
Today
Waning Gibbous
Apr 22
Last Quarter
Apr 29
New
May 6
First Quarter
May 14
Full

Today's Extremes

State Highs State Lows

Community

  • New Day
    New Day
  • Lake Michigan Sunrise
    Lake Michigan Sunrise
  • sunset from izmir, narlıdere
    sunset from izmir, narlıdere
  • oregon cherry
    oregon cherry
  • Sunset over the Bay
    Sunset over the Bay

WunderPhotos

Upload Photos

1,702,077 photos uploaded!

Nearby

Snow Depth

Station Depth Elevation
No new snow has been reported.

Coastal Water Temperatures

Place Temperature
No Stations Reporting

Earthquake Activity

City Distance Mag. Time & Date
No recent earthquake activity has been reported nearby.
Minimum magnitude displayed is 2.5.

Nearby Weather Stations

Station Location Temp. Windchill Dew Point Humidity Wind Precip. Elev Updated Type
Oskaloosa, IA 41.3 °F 41 °F 30 °F 63% North  at  0.0 mph 0.00 in / hr 856 ft 12:27 PM CDT Rapid Fire
Ottumwa, Ottumwa, IA 47.8 °F 45 °F 23 °F 37% NNW  at  5.4 mph 0.00 in / hr 669 ft 12:27 PM CDT Normal
East, Ottumwa, IA 46.0 °F 43 °F 35 °F 65% NNW  at  6.0 mph 0.00 in / hr 837 ft 12:27 PM CDT Rapid Fire
Lake Sundown, Moravia, IA 43.3 °F 43 °F 33 °F 67% East  at  1.0 mph 0.00 in / hr 945 ft 12:00 PM CDT Normal
HADS MET STATION AT RED ROCK LAKE IA, Pella, IA 38 °F 33 °F - - WNW  at  6 mph 0.00 in / hr 779 ft 11:00 AM CDT MADIS

Show More Stations Show Fewer Stations

What do you think?

We're not finished. Please let us know what you like, what you don't like, and what you are still missing.